Time;durP1;ratioP1;P1;durP2;ratioP2;P2;SDS_P1;SDS_P2;PMS_P1;PMS_P2;Temp;Humidity;BMP_temperature;BMP_pressure;BME280_temperature;BME280_humidity;BME280_pressure;Samples;Min_cycle;Max_cycle;Signal;HPM_P1;HPM_P2
2020/12/06 00:00:06;;;;;;;14.57;11.90;;;2.50;99.90;;;;;;4973235;28;20233;-75
2020/12/06 00:02:32;;;;;;;12.45;10.30;;;2.50;99.90;;;;;;4973280;28;20218;-75
2020/12/06 00:04:58;;;;;;;14.10;11.77;;;2.40;99.90;;;;;;4956264;28;20210;-75
2020/12/06 00:07:23;;;;;;;12.03;10.30;;;2.50;99.90;;;;;;4973643;28;20203;-75
2020/12/06 00:09:49;;;;;;;14.97;11.10;;;2.50;99.90;;;;;;4973182;28;20708;-75
2020/12/06 00:12:15;;;;;;;13.03;9.97;;;2.50;99.90;;;;;;4973277;28;20674;-75
2020/12/06 00:14:40;;;;;;;10.67;9.57;;;2.50;99.90;;;;;;4972816;28;20211;-75
2020/12/06 00:17:06;;;;;;;13.30;10.53;;;2.50;99.90;;;;;;4973659;28;20214;-75
2020/12/06 00:19:32;;;;;;;13.43;11.80;;;2.50;99.90;;;;;;4977175;28;20211;-75
2020/12/06 00:21:57;;;;;;;12.10;10.90;;;2.50;99.90;;;;;;4992769;28;20597;-75
2020/12/06 00:24:23;;;;;;;12.80;10.17;;;2.50;99.90;;;;;;4988855;28;20631;-75
2020/12/06 00:26:49;;;;;;;15.97;12.27;;;2.50;99.90;;;;;;4981038;28;20178;-75
2020/12/06 00:29:14;;;;;;;15.60;12.33;;;2.40;99.90;;;;;;4991372;28;20211;-75
2020/12/06 00:31:40;;;;;;;15.50;12.30;;;2.50;99.90;;;;;;4992383;28;20201;-75
2020/12/06 00:34:06;;;;;;;15.07;11.83;;;2.50;99.90;;;;;;4986220;28;20590;-75
2020/12/06 00:36:31;;;;;;;14.53;12.77;;;2.40;99.90;;;;;;4973053;28;20207;-75
2020/12/06 00:38:57;;;;;;;16.37;13.40;;;2.40;99.90;;;;;;4972862;28;20177;-75
2020/12/06 00:41:23;;;;;;;16.93;12.17;;;2.40;99.90;;;;;;4972763;28;20182;-75
2020/12/06 00:43:49;;;;;;;12.70;11.30;;;2.50;99.90;;;;;;4974643;28;20171;-76
2020/12/06 00:46:22;;;;;;;15.80;13.52;;;2.40;99.90;;;;;;4978244;28;20454;-75
2020/12/06 00:48:48;;;;;;;14.18;12.43;;;2.40;99.90;;;;;;4972909;28;20163;-75
2020/12/06 00:51:14;;;;;;;18.05;14.30;;;2.40;99.90;;;;;;4992199;28;21182;-75
2020/12/06 00:53:43;;;;;;;15.63;11.87;;;2.40;99.90;;;;;;4987866;28;20659;-75
2020/12/06 00:56:19;;;;;;;23.23;15.90;;;2.40;99.90;;;;;;4972803;28;20992;-75
2020/12/06 00:58:46;;;;;;;19.05;13.43;;;2.40;99.90;;;;;;4978591;28;20174;-75
2020/12/06 01:01:14;;;;;;;18.15;13.07;;;2.40;99.90;;;;;;4991498;28;20289;-75
2020/12/06 01:03:40;;;;;;;15.55;12.85;;;2.30;99.90;;;;;;4986325;28;20180;-75
2020/12/06 01:06:12;;;;;;;21.63;15.27;;;2.40;99.90;;;;;;4972703;28;20361;-75
2020/12/06 01:08:38;;;;;;;17.20;13.27;;;2.30;99.90;;;;;;4972905;28;20581;-75
2020/12/06 01:11:03;;;;;;;18.00;12.63;;;2.40;99.90;;;;;;4971742;28;20219;-75
2020/12/06 01:13:29;;;;;;;15.90;12.37;;;2.30;99.90;;;;;;4958385;28;20162;-75
2020/12/06 01:15:54;;;;;;;16.50;14.20;;;2.40;99.90;;;;;;4988689;28;20230;-75
2020/12/06 01:18:20;;;;;;;13.77;12.37;;;2.40;99.90;;;;;;4973548;28;20179;-75
2020/12/06 01:20:46;;;;;;;15.47;12.63;;;2.40;99.90;;;;;;4991336;28;20210;-75
2020/12/06 01:23:12;;;;;;;17.13;13.83;;;2.40;99.90;;;;;;4974075;28;20252;-75
2020/12/06 01:25:37;;;;;;;17.37;12.33;;;2.40;99.90;;;;;;4968994;28;20203;-75
2020/12/06 01:28:03;;;;;;;18.20;13.57;;;2.40;99.90;;;;;;4976478;28;20429;-75
2020/12/06 01:30:29;;;;;;;17.13;13.00;;;2.40;99.90;;;;;;4993873;28;20214;-76
2020/12/06 01:32:54;;;;;;;15.50;12.30;;;2.40;99.90;;;;;;4991258;28;20170;-76
2020/12/06 01:35:20;;;;;;;15.63;13.97;;;2.50;99.90;;;;;;4990750;28;20217;-77
2020/12/06 01:37:46;;;;;;;16.70;12.93;;;2.40;99.90;;;;;;4976478;28;20218;-75
2020/12/06 01:40:11;;;;;;;18.73;13.43;;;2.40;99.90;;;;;;4990712;28;20225;-76
2020/12/06 01:42:37;;;;;;;18.97;12.80;;;2.30;99.90;;;;;;4992077;28;20217;-76
2020/12/06 01:45:03;;;;;;;15.73;13.10;;;2.30;99.90;;;;;;4972383;28;20215;-76
2020/12/06 01:47:30;;;;;;;16.87;13.30;;;2.20;99.90;;;;;;4972848;28;20245;-77
2020/12/06 01:49:57;;;;;;;17.70;14.48;;;2.20;99.90;;;;;;4987134;28;20211;-76
2020/12/06 01:52:23;;;;;;;15.90;12.20;;;2.20;99.90;;;;;;4991744;28;20185;-75
2020/12/06 01:54:50;;;;;;;13.95;11.90;;;2.10;99.90;;;;;;4975054;28;20215;-75
2020/12/06 01:57:16;;;;;;;12.25;10.95;;;2.20;99.90;;;;;;4972356;28;20744;-75
2020/12/06 01:59:42;;;;;;;14.00;12.43;;;2.20;99.90;;;;;;4971614;28;20629;-75
2020/12/06 02:02:08;;;;;;;14.10;11.27;;;2.10;99.90;;;;;;4982900;28;20195;-75
2020/12/06 02:04:33;;;;;;;14.13;12.10;;;2.10;99.90;;;;;;4990539;28;20457;-75
2020/12/06 02:07:00;;;;;;;15.97;11.90;;;2.10;99.90;;;;;;4981106;28;20186;-75
2020/12/06 02:09:28;;;;;;;14.48;11.95;;;2.10;99.90;;;;;;4981621;28;20678;-75
2020/12/06 02:11:54;;;;;;;14.25;11.88;;;2.20;99.90;;;;;;4979046;28;20282;-75
2020/12/06 02:14:20;;;;;;;12.77;11.43;;;2.20;99.90;;;;;;4991457;28;20666;-75
2020/12/06 02:16:46;;;;;;;18.60;12.52;;;2.20;99.90;;;;;;4982256;28;20458;-75
2020/12/06 02:19:12;;;;;;;14.57;10.93;;;2.20;99.90;;;;;;4975137;28;20211;-75
2020/12/06 02:21:40;;;;;;;16.23;12.00;;;2.20;99.90;;;;;;4975434;28;20553;-75
2020/12/06 02:24:07;;;;;;;16.52;11.43;;;2.10;99.90;;;;;;4977963;28;20162;-75
2020/12/06 02:26:40;;;;;;;14.45;12.95;;;2.10;99.90;;;;;;4976410;28;20636;-75
2020/12/06 02:29:06;;;;;;;16.55;11.70;;;2.10;99.90;;;;;;4975121;28;20179;-75
2020/12/06 02:31:31;;;;;;;13.77;11.00;;;2.10;99.90;;;;;;4957710;28;20202;-75
2020/12/06 02:33:57;;;;;;;15.47;13.17;;;2.10;99.90;;;;;;4974952;28;20175;-75
2020/12/06 02:36:23;;;;;;;15.60;12.50;;;2.10;99.90;;;;;;4979643;28;20198;-75
2020/12/06 02:38:52;;;;;;;12.63;11.10;;;2.10;99.90;;;;;;4993590;28;20925;-75
2020/12/06 02:41:18;;;;;;;13.70;12.00;;;2.10;99.90;;;;;;4976536;28;20429;-75
2020/12/06 02:43:44;;;;;;;12.63;11.30;;;2.10;99.90;;;;;;4981480;28;20198;-75
2020/12/06 02:46:10;;;;;;;16.07;12.03;;;2.10;99.90;;;;;;4977687;28;20501;-75
2020/12/06 02:48:35;;;;;;;13.93;11.20;;;2.00;99.90;;;;;;4991658;28;20416;-75
2020/12/06 02:51:05;;;;;;;13.60;12.20;;;2.00;99.90;;;;;;4991191;28;20608;-75
2020/12/06 02:53:32;;;;;;;15.82;12.77;;;2.00;99.90;;;;;;4974795;28;20193;-75
2020/12/06 02:55:57;;;;;;;17.00;12.80;;;2.00;99.90;;;;;;4991189;28;20593;-75
2020/12/06 02:58:23;;;;;;;16.50;12.63;;;2.00;99.90;;;;;;4993371;28;20167;-75
2020/12/06 03:00:49;;;;;;;14.70;11.30;;;2.00;99.90;;;;;;4993596;28;20868;-75
2020/12/06 03:03:15;;;;;;;13.93;11.23;;;1.90;99.90;;;;;;4975736;28;20179;-75
2020/12/06 03:05:40;;;;;;;16.93;11.57;;;2.00;99.90;;;;;;4972185;28;20227;-75
2020/12/06 03:08:06;;;;;;;14.73;13.00;;;1.90;99.90;;;;;;4992299;28;20185;-75
2020/12/06 03:10:31;;;;;;;16.30;13.80;;;1.90;99.90;;;;;;4990040;28;20254;-75
2020/12/06 03:12:57;;;;;;;14.60;11.77;;;1.90;99.90;;;;;;4974499;28;20227;-75
2020/12/06 03:15:23;;;;;;;15.70;12.80;;;1.90;99.90;;;;;;4974437;28;20211;-75
2020/12/06 03:17:49;;;;;;;14.67;12.43;;;2.00;99.90;;;;;;4959196;28;20207;-75
2020/12/06 03:20:14;;;;;;;16.00;13.93;;;2.00;99.90;;;;;;4988484;28;20210;-75
2020/12/06 03:22:40;;;;;;;16.37;12.83;;;2.00;99.90;;;;;;4993564;28;20217;-75
2020/12/06 03:25:06;;;;;;;16.57;13.77;;;2.00;99.90;;;;;;4980104;28;20303;-75
2020/12/06 03:27:31;;;;;;;17.13;12.90;;;1.90;99.90;;;;;;4987578;28;20628;-76
2020/12/06 03:29:57;;;;;;;16.27;12.30;;;1.90;99.90;;;;;;4994901;28;20271;-75
2020/12/06 03:32:23;;;;;;;18.80;13.90;;;2.00;99.90;;;;;;4993426;28;20170;-75
2020/12/06 03:34:49;;;;;;;20.23;14.43;;;2.00;99.90;;;;;;4988860;28;20450;-75
2020/12/06 03:37:15;;;;;;;20.07;15.10;;;2.00;99.90;;;;;;4973987;28;20207;-75
2020/12/06 03:39:41;;;;;;;17.27;13.23;;;2.00;99.90;;;;;;4986271;28;20449;-75
2020/12/06 03:42:07;;;;;;;20.37;14.90;;;2.00;99.90;;;;;;4993435;28;20214;-75
2020/12/06 03:44:33;;;;;;;17.85;13.20;;;2.00;99.90;;;;;;4980671;28;20454;-75
2020/12/06 03:46:58;;;;;;;20.90;15.70;;;2.00;99.90;;;;;;4982659;28;20546;-76
2020/12/06 03:49:24;;;;;;;18.87;14.50;;;2.00;99.90;;;;;;4973356;28;20293;-76
2020/12/06 03:51:50;;;;;;;19.70;15.20;;;2.10;99.90;;;;;;4973706;28;20685;-77
2020/12/06 03:54:15;;;;;;;18.80;14.37;;;2.10;99.90;;;;;;4981766;28;20714;-75
2020/12/06 03:56:41;;;;;;;18.57;14.67;;;2.10;99.90;;;;;;4974091;28;20380;-75
2020/12/06 03:59:07;;;;;;;16.10;14.27;;;2.00;99.90;;;;;;4973003;28;20211;-75
2020/12/06 04:01:32;;;;;;;16.43;14.20;;;2.00;99.90;;;;;;4981355;28;20175;-75
2020/12/06 04:03:58;;;;;;;20.90;15.30;;;2.00;99.90;;;;;;4991620;28;20413;-76
2020/12/06 04:06:24;;;;;;;19.80;14.67;;;2.10;99.90;;;;;;4990958;28;20171;-76
2020/12/06 04:08:49;;;;;;;18.43;13.77;;;2.10;99.90;;;;;;4984335;28;20519;-76
2020/12/06 04:11:15;;;;;;;21.00;15.30;;;2.00;99.90;;;;;;4977706;28;20194;-76
2020/12/06 04:13:41;;;;;;;23.87;13.80;;;2.00;99.90;;;;;;4992349;28;20217;-75
2020/12/06 04:16:06;;;;;;;18.20;14.83;;;2.10;99.90;;;;;;4989158;28;20210;-76
2020/12/06 04:18:32;;;;;;;18.20;14.20;;;2.10;99.90;;;;;;4992863;28;20167;-76
2020/12/06 04:20:58;;;;;;;21.20;15.60;;;2.10;99.90;;;;;;4985380;28;20462;-75
2020/12/06 04:23:23;;;;;;;22.30;16.80;;;2.10;99.90;;;;;;4973193;28;20618;-75
2020/12/06 04:25:49;;;;;;;22.80;16.40;;;2.10;99.90;;;;;;4972869;28;20257;-75
2020/12/06 04:28:15;;;;;;;21.93;16.30;;;2.10;99.90;;;;;;4973366;28;20175;-75
2020/12/06 04:30:40;;;;;;;21.20;15.53;;;2.10;99.90;;;;;;4972674;28;20609;-75
2020/12/06 04:33:06;;;;;;;22.20;17.23;;;2.10;99.90;;;;;;4979940;28;20511;-75
2020/12/06 04:35:32;;;;;;;24.33;16.27;;;2.10;99.90;;;;;;4991199;28;20215;-75
2020/12/06 04:37:57;;;;;;;20.97;15.63;;;2.10;99.90;;;;;;4974536;28;20728;-75
2020/12/06 04:40:23;;;;;;;23.00;17.20;;;2.10;99.90;;;;;;4982223;28;20297;-75
2020/12/06 04:42:49;;;;;;;21.73;15.05;;;2.10;99.90;;;;;;4979420;28;20171;-75
2020/12/06 04:45:15;;;;;;;21.07;15.97;;;2.10;99.90;;;;;;4981457;28;20612;-75
2020/12/06 04:47:52;;;;;;;19.63;16.23;;;2.10;99.90;;;;;;4989567;28;20636;-75
2020/12/06 04:50:35;;;;;;;20.65;16.52;;;2.20;99.90;;;;;;4984469;28;20559;-75
2020/12/06 04:53:05;;;;;;;24.85;16.63;;;2.20;99.90;;;;;;4985299;28;20210;-75
2020/12/06 04:55:34;;;;;;;22.40;15.70;;;2.10;99.90;;;;;;4990788;28;20592;-77
2020/12/06 04:58:00;;;;;;;26.10;17.88;;;2.20;99.90;;;;;;4991667;28;20624;-75
2020/12/06 05:00:34;;;;;;;23.42;16.27;;;2.20;99.90;;;;;;4991510;28;20724;-75
2020/12/06 05:03:08;;;;;;;22.90;17.23;;;2.10;99.90;;;;;;4980211;28;20185;-75
2020/12/06 05:05:36;;;;;;;23.65;17.50;;;2.20;99.90;;;;;;4973558;28;20207;-75
2020/12/06 05:08:10;;;;;;;22.00;17.58;;;2.20;99.90;;;;;;4976166;28;20224;-75
2020/12/06 05:10:42;;;;;;;23.95;17.10;;;2.20;99.90;;;;;;4991294;28;20214;-75
2020/12/06 05:13:08;;;;;;;21.42;15.65;;;2.20;99.90;;;;;;4987218;28;20218;-75
2020/12/06 05:15:35;;;;;;;26.33;17.08;;;2.10;99.90;;;;;;4982445;28;20792;-75
2020/12/06 05:18:02;;;;;;;19.13;15.55;;;2.10;99.90;;;;;;4975575;28;20178;-75
2020/12/06 05:20:29;;;;;;;23.77;18.08;;;2.10;99.90;;;;;;4990873;28;20297;-75
2020/12/06 05:22:54;;;;;;;21.50;17.02;;;2.10;99.90;;;;;;4983873;28;20172;-75
2020/12/06 05:25:21;;;;;;;21.77;16.63;;;2.20;99.90;;;;;;4972139;28;20219;-75
2020/12/06 05:27:47;;;;;;;22.73;16.50;;;2.20;99.90;;;;;;4973270;28;20646;-75
2020/12/06 05:30:13;;;;;;;22.02;15.00;;;2.10;99.90;;;;;;4971775;28;20226;-75
2020/12/06 05:32:39;;;;;;;17.70;14.48;;;2.10;99.90;;;;;;4990072;28;20214;-75
2020/12/06 05:35:06;;;;;;;26.40;17.30;;;2.10;99.90;;;;;;4989162;28;20218;-75
2020/12/06 05:37:38;;;;;;;21.95;15.93;;;2.10;99.90;;;;;;4976967;28;20210;-75
2020/12/06 05:40:16;;;;;;;20.92;17.25;;;2.10;99.90;;;;;;4971888;28;20211;-75
2020/12/06 05:42:43;;;;;;;19.77;16.05;;;2.10;99.90;;;;;;4991438;28;20166;-75
2020/12/06 05:45:10;;;;;;;22.30;16.35;;;2.00;99.90;;;;;;4990596;28;20757;-75
2020/12/06 05:47:36;;;;;;;24.67;17.77;;;2.10;99.90;;;;;;4974535;28;20175;-75
2020/12/06 05:50:03;;;;;;;20.65;15.43;;;2.10;99.90;;;;;;4976383;28;20215;-75
2020/12/06 05:52:31;;;;;;;20.52;15.90;;;2.20;99.90;;;;;;4994984;28;20221;-75
2020/12/06 05:54:58;;;;;;;17.73;15.60;;;2.10;99.90;;;;;;4972869;28;20215;-75
2020/12/06 05:57:28;;;;;;;22.50;16.35;;;2.10;99.90;;;;;;4975923;28;20267;-75
2020/12/06 05:59:59;;;;;;;21.35;15.68;;;2.20;99.90;;;;;;4976167;28;20286;-75
2020/12/06 06:02:25;;;;;;;23.30;18.20;;;2.20;99.90;;;;;;4975258;28;20167;-75
2020/12/06 06:04:56;;;;;;;25.77;16.75;;;2.20;99.90;;;;;;4989615;28;20220;-75
2020/12/06 06:07:23;;;;;;;26.55;17.70;;;2.20;99.90;;;;;;4991560;28;20213;-75
2020/12/06 06:09:54;;;;;;;25.75;17.48;;;2.20;99.90;;;;;;4974612;28;20211;-75
2020/12/06 06:12:34;;;;;;;24.95;18.27;;;2.30;99.90;;;;;;4986500;28;20209;-75
2020/12/06 06:15:03;;;;;;;29.33;19.30;;;2.30;99.90;;;;;;4985791;28;20246;-75
2020/12/06 06:17:30;;;;;;;25.75;19.88;;;2.30;99.90;;;;;;4975550;28;20227;-75
2020/12/06 06:19:57;;;;;;;31.33;20.13;;;2.30;99.90;;;;;;4974266;28;20269;-75
2020/12/06 06:22:28;;;;;;;27.48;18.85;;;2.30;99.90;;;;;;4985394;28;20198;-75
2020/12/06 06:24:55;;;;;;;26.42;18.00;;;2.30;99.90;;;;;;4972533;28;20211;-75
2020/12/06 06:27:21;;;;;;;23.23;16.10;;;2.30;99.90;;;;;;4976863;28;20183;-75
2020/12/06 06:29:49;;;;;;;25.50;18.27;;;2.40;99.90;;;;;;4974501;28;20290;-75
2020/12/06 06:32:15;;;;;;;28.55;19.50;;;2.30;99.90;;;;;;4975619;28;20345;-76
2020/12/06 06:34:42;;;;;;;31.92;19.88;;;2.40;99.90;;;;;;4980950;28;20225;-75
2020/12/06 06:37:17;;;;;;;23.20;17.20;;;2.40;99.90;;;;;;4990225;28;20597;-75
2020/12/06 06:39:43;;;;;;;23.55;16.52;;;2.40;99.90;;;;;;4993568;28;20213;-76
2020/12/06 06:42:13;;;;;;;25.90;17.95;;;2.50;99.90;;;;;;4993592;28;20194;-76
2020/12/06 06:44:45;;;;;;;27.17;18.05;;;2.40;99.90;;;;;;4975825;28;20581;-75
2020/12/06 06:47:12;;;;;;;29.50;18.33;;;2.40;99.90;;;;;;4980696;28;20219;-76
2020/12/06 06:49:57;;;;;;;24.92;16.88;;;2.50;99.90;;;;;;4980563;28;20210;-75
2020/12/06 06:52:27;;;;;;;25.98;18.67;;;2.50;99.90;;;;;;4994020;28;20748;-75
2020/12/06 06:54:54;;;;;;;25.63;19.30;;;2.50;99.90;;;;;;4985534;28;20693;-76
2020/12/06 06:57:24;;;;;;;24.65;17.13;;;2.50;99.90;;;;;;4978324;28;20289;-76
2020/12/06 06:59:52;;;;;;;24.20;17.20;;;2.50;99.90;;;;;;4973164;28;20199;-75
2020/12/06 07:02:34;;;;;;;19.13;14.60;;;2.50;99.90;;;;;;4976109;28;20278;-76
2020/12/06 07:05:06;;;;;;;24.98;18.17;;;2.40;99.90;;;;;;4984724;28;20543;-76
2020/12/06 07:07:46;;;;;;;23.10;17.20;;;2.40;99.90;;;;;;4987190;28;20206;-76
2020/12/06 07:10:14;;;;;;;21.27;16.20;;;2.40;99.90;;;;;;4974598;28;20225;-75
2020/12/06 07:12:46;;;;;;;23.42;16.10;;;2.40;99.90;;;;;;4992784;28;20267;-76
2020/12/06 07:15:13;;;;;;;20.60;14.73;;;2.40;99.90;;;;;;4984814;28;20689;-76
2020/12/06 07:17:39;;;;;;;22.27;17.10;;;2.30;99.90;;;;;;4978081;28;20219;-77
2020/12/06 07:20:07;;;;;;;22.30;17.23;;;2.30;99.90;;;;;;4982573;28;20202;-76
2020/12/06 07:22:33;;;;;;;21.95;15.13;;;2.30;99.90;;;;;;4978883;28;20221;-77
2020/12/06 07:24:59;;;;;;;22.23;15.80;;;2.30;99.90;;;;;;4975366;28;20222;-76
2020/12/06 07:27:25;;;;;;;23.48;17.83;;;2.40;99.90;;;;;;4991926;28;20657;-77
2020/12/06 07:29:50;;;;;;;20.70;16.10;;;2.30;99.90;;;;;;4973901;28;20436;-76
2020/12/06 07:32:18;;;;;;;21.80;16.90;;;2.30;99.90;;;;;;4991614;28;20452;-76
2020/12/06 07:34:44;;;;;;;22.90;17.20;;;2.30;99.90;;;;;;4988366;28;20280;-76
2020/12/06 07:37:09;;;;;;;24.33;16.20;;;2.30;99.90;;;;;;4976841;28;20211;-76
2020/12/06 07:39:46;;;;;;;24.90;17.63;;;2.40;99.90;;;;;;4974055;28;20225;-77
2020/12/06 07:42:22;;;;;;;24.25;16.50;;;2.40;99.90;;;;;;4991405;28;20240;-76
2020/12/06 07:44:49;;;;;;;25.77;16.90;;;2.30;99.90;;;;;;4979596;28;20280;-75
2020/12/06 07:47:16;;;;;;;23.33;16.20;;;2.30;99.90;;;;;;4980992;28;20183;-76
2020/12/06 07:49:50;;;;;;;25.55;16.55;;;2.40;99.90;;;;;;4972747;28;20215;-76
2020/12/06 07:52:24;;;;;;;24.38;17.10;;;2.40;99.90;;;;;;4972737;28;20209;-76
2020/12/06 07:55:09;;;;;;;23.15;16.90;;;2.50;99.90;;;;;;4977645;28;20214;-76
2020/12/06 07:57:45;;;;;;;22.85;16.13;;;2.40;99.90;;;;;;4979228;28;20673;-75
2020/12/06 08:00:37;;;;;;;28.80;19.40;;;2.40;99.90;;;;;;4992343;28;20218;-75
2020/12/06 08:03:05;;;;;;;28.88;18.52;;;2.40;99.90;;;;;;4978430;28;20218;-75
2020/12/06 08:05:37;;;;;;;24.95;17.40;;;2.40;99.90;;;;;;4972918;28;20210;-75
2020/12/06 08:08:14;;;;;;;26.00;17.15;;;2.40;99.90;;;;;;4962614;28;20183;-76
2020/12/06 08:10:41;;;;;;;28.45;18.50;;;2.40;99.90;;;;;;4972269;28;20218;-75
2020/12/06 08:13:13;;;;;;;26.48;17.90;;;2.40;99.90;;;;;;4976108;28;20171;-75
2020/12/06 08:15:39;;;;;;;27.75;19.88;;;2.40;99.90;;;;;;4979698;28;20278;-75
2020/12/06 08:18:12;;;;;;;26.63;18.23;;;2.50;99.90;;;;;;4956377;28;20270;-75
2020/12/06 08:20:38;;;;;;;23.30;16.75;;;2.50;99.90;;;;;;4984618;28;20213;-75
2020/12/06 08:23:04;;;;;;;25.67;17.13;;;2.40;99.90;;;;;;4992280;28;20167;-75
2020/12/06 08:25:31;;;;;;;25.03;17.97;;;2.40;99.90;;;;;;4977493;28;20227;-75
2020/12/06 08:27:59;;;;;;;27.38;17.30;;;2.50;99.90;;;;;;4968705;28;20245;-75
2020/12/06 08:30:27;;;;;;;29.58;17.33;;;2.60;99.90;;;;;;4983272;28;20291;-75
2020/12/06 08:32:56;;;;;;;25.05;16.33;;;2.50;99.90;;;;;;4961623;28;20663;-75
2020/12/06 08:35:47;;;;;;;27.83;19.27;;;2.60;99.90;;;;;;4971786;28;20215;-75
2020/12/06 08:38:39;;;;;;;24.55;16.88;;;2.60;99.90;;;;;;4983396;28;20175;-76
2020/12/06 08:41:12;;;;;;;21.67;16.33;;;2.50;99.90;;;;;;4969090;28;20269;-77
2020/12/06 08:44:05;;;;;;;30.63;19.20;;;2.60;99.90;;;;;;4988608;28;20653;-76
2020/12/06 08:46:32;;;;;;;24.08;18.10;;;2.60;99.90;;;;;;4972490;28;20211;-76
2020/12/06 08:49:02;;;;;;;26.67;18.55;;;2.60;99.90;;;;;;4971826;28;20167;-76
2020/12/06 08:51:34;;;;;;;25.27;16.70;;;2.60;99.90;;;;;;4959620;28;20560;-76
2020/12/06 08:54:02;;;;;;;24.88;18.40;;;2.60;99.90;;;;;;4991343;28;20163;-76
2020/12/06 08:56:31;;;;;;;28.05;16.73;;;2.60;99.90;;;;;;4975219;28;20229;-76
2020/12/06 08:59:16;;;;;;;28.15;17.00;;;2.70;99.90;;;;;;4971684;28;20732;-77
2020/12/06 09:01:55;;;;;;;23.25;17.67;;;2.70;99.90;;;;;;4977774;28;20197;-77
2020/12/06 09:04:22;;;;;;;27.90;19.55;;;2.70;99.90;;;;;;4990308;28;20214;-76
2020/12/06 09:06:50;;;;;;;22.67;17.33;;;2.70;99.90;;;;;;4988694;28;20213;-76
2020/12/06 09:09:16;;;;;;;24.58;18.10;;;2.70;99.90;;;;;;4990807;28;20217;-75
2020/12/06 09:11:42;;;;;;;25.92;17.55;;;2.70;99.90;;;;;;4986317;28;20191;-76
2020/12/06 09:14:08;;;;;;;22.67;17.13;;;2.80;99.90;;;;;;4976690;28;20214;-76
2020/12/06 09:16:37;;;;;;;27.80;17.70;;;2.80;99.90;;;;;;4978979;28;20668;-76
2020/12/06 09:19:03;;;;;;;26.77;18.30;;;2.80;99.90;;;;;;4971823;28;20206;-76
2020/12/06 09:21:28;;;;;;;24.80;17.13;;;2.80;99.90;;;;;;4972070;28;20654;-76
2020/12/06 09:23:54;;;;;;;23.50;17.57;;;2.90;99.90;;;;;;4974439;28;20171;-76
2020/12/06 09:26:20;;;;;;;25.40;17.67;;;3.00;99.90;;;;;;4984227;28;20186;-76
2020/12/06 09:28:46;;;;;;;22.07;17.47;;;3.00;99.90;;;;;;4980730;28;20572;-76
2020/12/06 09:31:12;;;;;;;24.17;17.00;;;3.00;99.90;;;;;;4971800;28;20225;-76
2020/12/06 09:33:37;;;;;;;26.47;18.27;;;3.00;99.90;;;;;;4975562;28;20430;-76
2020/12/06 09:36:03;;;;;;;27.10;18.27;;;3.00;99.90;;;;;;4976016;28;20211;-76
2020/12/06 09:38:29;;;;;;;27.00;19.40;;;3.00;99.90;;;;;;4975514;28;20418;-75
2020/12/06 09:40:56;;;;;;;30.17;18.27;;;3.00;99.90;;;;;;4975272;28;21000;-75
2020/12/06 09:43:22;;;;;;;26.60;19.83;;;3.10;99.90;;;;;;4991177;28;20414;-75
2020/12/06 09:45:48;;;;;;;25.17;18.05;;;3.30;99.90;;;;;;4981161;28;20470;-75
2020/12/06 09:48:14;;;;;;;28.97;18.87;;;3.30;99.90;;;;;;4958070;28;20183;-75
2020/12/06 09:50:40;;;;;;;29.33;21.03;;;3.20;99.90;;;;;;4974374;28;20505;-75
2020/12/06 09:53:06;;;;;;;31.88;21.63;;;3.20;99.90;;;;;;4977920;28;20460;-75
2020/12/06 09:55:32;;;;;;;26.25;19.08;;;3.20;99.90;;;;;;4981865;28;20214;-75
2020/12/06 09:57:58;;;;;;;33.07;20.50;;;3.30;99.90;;;;;;4976096;28;20602;-75
2020/12/06 10:00:24;;;;;;;32.07;20.43;;;3.40;99.90;;;;;;4976524;28;20477;-75
2020/12/06 10:02:49;;;;;;;30.65;20.98;;;3.40;99.90;;;;;;4979818;28;20171;-75
2020/12/06 10:05:15;;;;;;;26.13;18.70;;;3.30;99.90;;;;;;4975011;28;20214;-75
2020/12/06 10:07:41;;;;;;;29.20;21.30;;;3.30;99.90;;;;;;4975421;28;20183;-75
2020/12/06 10:10:08;;;;;;;27.10;19.23;;;3.30;99.90;;;;;;4974496;28;20215;-75
2020/12/06 10:12:35;;;;;;;27.88;20.60;;;3.40;99.90;;;;;;4971764;28;20747;-75
2020/12/06 10:15:01;;;;;;;30.90;19.98;;;3.40;99.90;;;;;;4983566;28;20678;-75
2020/12/06 10:17:27;;;;;;;29.23;21.23;;;3.50;99.90;;;;;;4975397;28;20257;-75
2020/12/06 10:19:52;;;;;;;34.10;21.83;;;3.50;99.90;;;;;;4974446;28;20709;-75
2020/12/06 10:22:18;;;;;;;29.80;22.00;;;3.50;99.90;;;;;;4988668;28;20800;-75
2020/12/06 10:24:44;;;;;;;30.53;21.77;;;3.60;99.90;;;;;;4983596;28;20223;-76
2020/12/06 10:27:10;;;;;;;31.07;21.13;;;3.70;99.90;;;;;;4975119;28;20183;-75
2020/12/06 10:29:36;;;;;;;31.52;23.20;;;3.60;99.90;;;;;;4974072;28;20219;-75
2020/12/06 10:32:02;;;;;;;34.53;20.92;;;3.60;99.90;;;;;;4974617;28;20194;-75
2020/12/06 10:34:28;;;;;;;31.00;22.47;;;3.60;99.90;;;;;;4983259;28;20210;-75
2020/12/06 10:36:55;;;;;;;33.00;23.80;;;3.60;99.90;;;;;;4983276;28;20337;-75
2020/12/06 10:39:22;;;;;;;30.38;22.60;;;3.50;99.90;;;;;;4992620;28;20229;-75
2020/12/06 10:41:56;;;;;;;29.88;20.08;;;3.70;99.90;;;;;;4993902;28;20322;-76
2020/12/06 10:44:23;;;;;;;30.88;21.90;;;3.70;99.90;;;;;;4978173;28;20211;-75
2020/12/06 10:46:49;;;;;;;31.85;23.30;;;3.90;99.90;;;;;;4976147;28;20650;-75
2020/12/06 10:49:15;;;;;;;29.10;20.80;;;3.90;99.90;;;;;;4987292;28;20616;-75
2020/12/06 10:51:42;;;;;;;31.85;21.75;;;3.90;99.90;;;;;;4979634;28;20573;-75
2020/12/06 10:54:09;;;;;;;26.38;20.05;;;3.70;99.90;;;;;;4988825;28;20218;-76
2020/12/06 10:56:37;;;;;;;30.35;20.55;;;3.70;99.90;;;;;;4982371;28;20206;-76
2020/12/06 10:59:03;;;;;;;30.77;21.83;;;3.80;99.90;;;;;;4973644;28;20249;-76
2020/12/06 11:01:31;;;;;;;32.03;20.80;;;3.70;99.90;;;;;;4974669;28;20187;-76
2020/12/06 11:03:58;;;;;;;31.05;21.67;;;3.70;99.90;;;;;;4980802;28;20258;-76
2020/12/06 11:06:24;;;;;;;30.10;20.30;;;3.70;99.90;;;;;;4978228;28;20167;-76
2020/12/06 11:08:51;;;;;;;31.73;21.15;;;3.70;99.90;;;;;;4992545;28;20633;-77
2020/12/06 11:11:18;;;;;;;27.13;18.95;;;3.70;99.90;;;;;;4968794;28;20186;-76
2020/12/06 11:13:44;;;;;;;25.60;18.77;;;3.80;99.90;;;;;;4975462;28;20170;-77
2020/12/06 11:16:13;;;;;;;23.97;17.90;;;3.90;99.90;;;;;;4981828;28;20749;-76
2020/12/06 11:18:39;;;;;;;24.75;18.80;;;4.00;99.90;;;;;;4973794;28;20442;-76
2020/12/06 11:21:05;;;;;;;27.30;19.23;;;4.00;99.90;;;;;;4980659;28;20250;-76
2020/12/06 11:23:31;;;;;;;27.27;19.23;;;4.20;99.90;;;;;;4993270;28;20390;-76
2020/12/06 11:25:57;;;;;;;25.80;17.90;;;4.20;99.90;;;;;;4986768;28;20202;-77
2020/12/06 11:28:22;;;;;;;26.17;18.17;;;4.30;99.90;;;;;;4973483;28;20164;-77
2020/12/06 11:30:48;;;;;;;25.00;17.87;;;4.30;99.90;;;;;;4973148;28;20540;-76
2020/12/06 11:33:14;;;;;;;21.20;18.00;;;4.20;99.90;;;;;;4973635;28;20644;-76
2020/12/06 11:35:40;;;;;;;27.55;18.20;;;4.20;99.90;;;;;;4985093;28;20257;-76
2020/12/06 11:38:06;;;;;;;26.40;18.37;;;4.30;99.90;;;;;;4956019;28;20211;-76
2020/12/06 11:40:32;;;;;;;26.00;17.30;;;4.30;99.90;;;;;;4984520;28;20218;-76
2020/12/06 11:42:58;;;;;;;23.20;17.83;;;4.30;99.90;;;;;;4987509;28;20703;-76
2020/12/06 11:45:24;;;;;;;22.20;17.10;;;4.30;99.90;;;;;;4965443;28;20537;-76
2020/12/06 11:47:50;;;;;;;26.07;17.47;;;4.40;99.90;;;;;;4975299;28;20262;-75
2020/12/06 11:50:16;;;;;;;21.77;16.67;;;4.40;99.90;;;;;;4973701;28;20484;-75
2020/12/06 11:52:43;;;;;;;24.02;17.00;;;4.30;99.90;;;;;;4992250;28;20434;-75
2020/12/06 11:55:09;;;;;;;22.58;17.08;;;4.30;99.90;;;;;;4978329;28;21039;-75
2020/12/06 11:57:36;;;;;;;19.90;17.80;;;4.30;99.90;;;;;;4986588;28;20269;-75
2020/12/06 12:00:06;;;;;;;25.45;17.30;;;4.40;99.90;;;;;;4980128;28;20991;-75
2020/12/06 12:02:32;;;;;;;22.50;16.10;;;4.50;99.90;;;;;;4961700;28;20206;-75
2020/12/06 12:04:58;;;;;;;22.30;16.13;;;4.50;99.90;;;;;;4984083;28;20650;-75
2020/12/06 12:07:24;;;;;;;24.60;17.20;;;4.50;99.90;;;;;;4966637;28;20650;-75
2020/12/06 12:09:50;;;;;;;25.52;18.60;;;4.50;99.90;;;;;;4987731;23;20664;-76
2020/12/06 12:12:16;;;;;;;22.37;16.60;;;4.50;99.90;;;;;;4986630;28;20191;-76
2020/12/06 12:14:42;;;;;;;21.10;17.20;;;4.50;99.90;;;;;;4972237;28;20500;-75
2020/12/06 12:17:07;;;;;;;26.10;18.88;;;4.50;99.90;;;;;;4946571;28;20310;-75
2020/12/06 12:19:33;;;;;;;27.00;20.03;;;4.50;99.90;;;;;;4972390;28;20321;-75
2020/12/06 12:22:00;;;;;;;23.97;19.03;;;4.50;99.90;;;;;;4972755;28;20191;-75
2020/12/06 12:24:26;;;;;;;23.20;18.08;;;4.60;99.90;;;;;;4972977;28;20195;-75
2020/12/06 12:26:56;;;;;;;26.20;18.65;;;4.50;99.90;;;;;;4955194;28;20187;-75
2020/12/06 12:29:22;;;;;;;23.25;17.23;;;4.50;99.90;;;;;;4982583;28;20214;-75
2020/12/06 12:31:48;;;;;;;23.70;16.80;;;4.40;99.90;;;;;;4974126;28;20221;-75
2020/12/06 12:34:13;;;;;;;20.43;16.33;;;4.50;99.90;;;;;;4977796;28;20450;-75
2020/12/06 12:36:43;;;;;;;19.33;15.40;;;4.50;99.90;;;;;;4953028;28;20290;-75